sensor_id;sensor_type;location;lat;lon;timestamp;pressure;altitude;pressure_sealevel;temperature;humidity
4972;BME280;2501;51.214;6.768;2023-04-10T00:00:05;101921.47;;;8.61;62.52
4972;BME280;2501;51.214;6.768;2023-04-10T00:02:34;101914.34;;;8.57;62.75
4972;BME280;2501;51.214;6.768;2023-04-10T00:05:03;101915.19;;;8.56;62.94
4972;BME280;2501;51.214;6.768;2023-04-10T00:07:34;101913.41;;;8.55;62.63
4972;BME280;2501;51.214;6.768;2023-04-10T00:10:03;101904.69;;;8.55;62.96
4972;BME280;2501;51.214;6.768;2023-04-10T00:12:31;101901.06;;;8.51;63.19
4972;BME280;2501;51.214;6.768;2023-04-10T00:14:59;101904.41;;;8.46;63.31
4972;BME280;2501;51.214;6.768;2023-04-10T00:17:28;101899.00;;;8.41;63.73
4972;BME280;2501;51.214;6.768;2023-04-10T00:19:57;101896.63;;;8.47;63.53
4972;BME280;2501;51.214;6.768;2023-04-10T00:22:26;101894.88;;;8.48;63.76
4972;BME280;2501;51.214;6.768;2023-04-10T00:24:57;101898.34;;;8.47;63.53
4972;BME280;2501;51.214;6.768;2023-04-10T00:27:26;101898.22;;;8.44;63.62
4972;BME280;2501;51.214;6.768;2023-04-10T00:29:54;101888.59;;;8.43;63.64
4972;BME280;2501;51.214;6.768;2023-04-10T00:32:22;101884.06;;;8.37;63.84
4972;BME280;2501;51.214;6.768;2023-04-10T00:34:51;101880.59;;;8.38;63.79
4972;BME280;2501;51.214;6.768;2023-04-10T00:37:19;101879.56;;;8.33;63.81
4972;BME280;2501;51.214;6.768;2023-04-10T00:39:48;101878.94;;;8.40;63.68
4972;BME280;2501;51.214;6.768;2023-04-10T00:42:19;101879.72;;;8.37;63.69
4972;BME280;2501;51.214;6.768;2023-04-10T00:44:47;101868.22;;;8.32;63.62
4972;BME280;2501;51.214;6.768;2023-04-10T00:47:16;101874.44;;;8.36;63.84
4972;BME280;2501;51.214;6.768;2023-04-10T00:49:44;101870.88;;;8.34;63.80
4972;BME280;2501;51.214;6.768;2023-04-10T00:52:13;101874.38;;;8.34;63.75
4972;BME280;2501;51.214;6.768;2023-04-10T00:54:41;101871.72;;;8.33;63.90
4972;BME280;2501;51.214;6.768;2023-04-10T00:57:10;101871.78;;;8.34;64.00
4972;BME280;2501;51.214;6.768;2023-04-10T00:59:41;101870.81;;;8.32;63.82
4972;BME280;2501;51.214;6.768;2023-04-10T01:02:10;101858.56;;;8.31;64.20
4972;BME280;2501;51.214;6.768;2023-04-10T01:04:38;101859.59;;;8.35;63.84
4972;BME280;2501;51.214;6.768;2023-04-10T01:07:16;101860.47;;;8.35;63.82
4972;BME280;2501;51.214;6.768;2023-04-10T01:09:50;101860.44;;;8.34;64.21
4972;BME280;2501;51.214;6.768;2023-04-10T01:12:31;101858.81;;;8.37;63.91
4972;BME280;2501;51.214;6.768;2023-04-10T01:15:11;101844.84;;;8.37;63.68
4972;BME280;2501;51.214;6.768;2023-04-10T01:17:44;101848.28;;;8.36;63.67
4972;BME280;2501;51.214;6.768;2023-04-10T01:20:18;101844.16;;;8.43;63.84
4972;BME280;2501;51.214;6.768;2023-04-10T01:26:06;101846.34;;;8.30;63.89
4972;BME280;2501;51.214;6.768;2023-04-10T01:28:54;101841.44;;;8.40;63.82
4972;BME280;2501;51.214;6.768;2023-04-10T01:31:29;101839.50;;;8.34;63.86
4972;BME280;2501;51.214;6.768;2023-04-10T01:34:07;101830.78;;;8.33;63.68
4972;BME280;2501;51.214;6.768;2023-04-10T01:36:39;101830.84;;;8.35;63.91
4972;BME280;2501;51.214;6.768;2023-04-10T01:39:09;101829.91;;;8.33;63.97
4972;BME280;2501;51.214;6.768;2023-04-10T01:41:40;101824.50;;;8.28;64.21
4972;BME280;2501;51.214;6.768;2023-04-10T01:44:14;101824.47;;;8.27;64.31
4972;BME280;2501;51.214;6.768;2023-04-10T01:46:45;101817.41;;;8.24;64.81
4972;BME280;2501;51.214;6.768;2023-04-10T01:49:14;101814.56;;;8.18;64.78
4972;BME280;2501;51.214;6.768;2023-04-10T01:51:43;101813.59;;;8.15;65.46
4972;BME280;2501;51.214;6.768;2023-04-10T01:54:12;101811.84;;;8.14;65.56
4972;BME280;2501;51.214;6.768;2023-04-10T01:56:41;101806.47;;;8.09;65.66
4972;BME280;2501;51.214;6.768;2023-04-10T01:59:13;101808.19;;;8.09;65.97
4972;BME280;2501;51.214;6.768;2023-04-10T02:01:41;101805.50;;;8.07;66.04
4972;BME280;2501;51.214;6.768;2023-04-10T02:04:10;101804.78;;;8.11;65.93
4972;BME280;2501;51.214;6.768;2023-04-10T02:06:42;101807.84;;;7.99;66.17
4972;BME280;2501;51.214;6.768;2023-04-10T02:09:17;101807.91;;;8.01;66.23
4972;BME280;2501;51.214;6.768;2023-04-10T02:11:53;101799.94;;;7.96;66.59
4972;BME280;2501;51.214;6.768;2023-04-10T02:14:25;101794.63;;;7.93;66.55
4972;BME280;2501;51.214;6.768;2023-04-10T02:16:55;101793.63;;;7.90;66.67
4972;BME280;2501;51.214;6.768;2023-04-10T02:19:26;101792.72;;;7.89;67.17
4972;BME280;2501;51.214;6.768;2023-04-10T02:21:56;101788.34;;;7.88;66.86
4972;BME280;2501;51.214;6.768;2023-04-10T02:24:26;101794.13;;;7.80;66.92
4972;BME280;2501;51.214;6.768;2023-04-10T02:26:55;101799.28;;;7.77;67.26
4972;BME280;2501;51.214;6.768;2023-04-10T02:29:26;101801.06;;;7.78;66.97
4972;BME280;2501;51.214;6.768;2023-04-10T02:31:55;101805.41;;;7.77;66.83
4972;BME280;2501;51.214;6.768;2023-04-10T02:34:23;101800.22;;;7.79;66.82
4972;BME280;2501;51.214;6.768;2023-04-10T02:36:51;101799.94;;;7.71;67.09
4972;BME280;2501;51.214;6.768;2023-04-10T02:39:20;101805.94;;;7.68;67.13
4972;BME280;2501;51.214;6.768;2023-04-10T02:41:49;101794.72;;;7.71;67.21
4972;BME280;2501;51.214;6.768;2023-04-10T02:44:17;101799.06;;;7.71;67.22
4972;BME280;2501;51.214;6.768;2023-04-10T02:46:48;101796.41;;;7.69;67.22
4972;BME280;2501;51.214;6.768;2023-04-10T02:49:17;101795.41;;;7.65;67.20
4972;BME280;2501;51.214;6.768;2023-04-10T02:51:45;101792.66;;;7.62;67.44
4972;BME280;2501;51.214;6.768;2023-04-10T02:54:13;101793.53;;;7.61;67.38
4972;BME280;2501;51.214;6.768;2023-04-10T02:56:42;101788.94;;;7.54;67.85
4972;BME280;2501;51.214;6.768;2023-04-10T02:59:11;101781.09;;;7.54;67.79
4972;BME280;2501;51.214;6.768;2023-04-10T03:01:39;101777.59;;;7.54;68.15
4972;BME280;2501;51.214;6.768;2023-04-10T03:04:10;101785.53;;;7.57;67.80
4972;BME280;2501;51.214;6.768;2023-04-10T03:06:39;101782.16;;;7.59;68.05
4972;BME280;2501;51.214;6.768;2023-04-10T03:09:07;101783.72;;;7.54;68.00
4972;BME280;2501;51.214;6.768;2023-04-10T03:11:36;101773.97;;;7.50;68.24
4972;BME280;2501;51.214;6.768;2023-04-10T03:14:04;101772.25;;;7.51;68.23
4972;BME280;2501;51.214;6.768;2023-04-10T03:16:34;101765.97;;;7.44;68.33
4972;BME280;2501;51.214;6.768;2023-04-10T03:19:02;101756.00;;;7.58;68.45
4972;BME280;2501;51.214;6.768;2023-04-10T03:21:33;101752.91;;;7.44;68.05
4972;BME280;2501;51.214;6.768;2023-04-10T03:24:02;101750.25;;;7.43;68.40
4972;BME280;2501;51.214;6.768;2023-04-10T03:26:30;101751.13;;;7.43;68.12
4972;BME280;2501;51.214;6.768;2023-04-10T03:28:59;101744.19;;;7.44;68.35
4972;BME280;2501;51.214;6.768;2023-04-10T03:31:28;101748.66;;;7.48;68.50
4972;BME280;2501;51.214;6.768;2023-04-10T03:33:56;101742.38;;;7.41;68.56
4972;BME280;2501;51.214;6.768;2023-04-10T03:36:25;101737.97;;;7.40;68.45
4972;BME280;2501;51.214;6.768;2023-04-10T03:38:56;101732.75;;;7.40;68.59
4972;BME280;2501;51.214;6.768;2023-04-10T03:41:24;101732.53;;;7.34;68.89
4972;BME280;2501;51.214;6.768;2023-04-10T03:43:53;101727.31;;;7.34;69.01
4972;BME280;2501;51.214;6.768;2023-04-10T03:46:21;101720.97;;;7.26;69.18
4972;BME280;2501;51.214;6.768;2023-04-10T03:48:50;101729.69;;;7.26;69.10
4972;BME280;2501;51.214;6.768;2023-04-10T03:51:18;101725.34;;;7.27;69.54
4972;BME280;2501;51.214;6.768;2023-04-10T03:53:48;101727.84;;;7.24;69.32
4972;BME280;2501;51.214;6.768;2023-04-10T03:56:19;101719.91;;;7.21;69.39
4972;BME280;2501;51.214;6.768;2023-04-10T03:58:48;101718.00;;;7.17;69.45
4972;BME280;2501;51.214;6.768;2023-04-10T04:01:16;101726.91;;;7.22;69.62
4972;BME280;2501;51.214;6.768;2023-04-10T04:03:45;101725.47;;;7.06;69.81
4972;BME280;2501;51.214;6.768;2023-04-10T04:06:13;101714.28;;;7.10;70.05
4972;BME280;2501;51.214;6.768;2023-04-10T04:08:41;101723.00;;;7.11;70.02
4972;BME280;2501;51.214;6.768;2023-04-10T04:11:10;101717.78;;;7.11;69.86
4972;BME280;2501;51.214;6.768;2023-04-10T04:13:41;101715.88;;;7.05;70.33
4972;BME280;2501;51.214;6.768;2023-04-10T04:16:09;101716.97;;;7.12;69.92
4972;BME280;2501;51.214;6.768;2023-04-10T04:18:38;101727.38;;;7.12;69.82
4972;BME280;2501;51.214;6.768;2023-04-10T04:21:06;101722.75;;;7.03;70.11
4972;BME280;2501;51.214;6.768;2023-04-10T04:23:35;101726.31;;;7.05;70.14
4972;BME280;2501;51.214;6.768;2023-04-10T04:26:04;101719.03;;;6.96;70.37
4972;BME280;2501;51.214;6.768;2023-04-10T04:28:32;101720.03;;;7.00;70.53
4972;BME280;2501;51.214;6.768;2023-04-10T04:31:04;101713.81;;;6.96;70.54
4972;BME280;2501;51.214;6.768;2023-04-10T04:33:32;101711.94;;;6.92;70.36
4972;BME280;2501;51.214;6.768;2023-04-10T04:36:00;101705.25;;;7.01;70.24
4972;BME280;2501;51.214;6.768;2023-04-10T04:38:32;101705.38;;;7.04;70.12
4972;BME280;2501;51.214;6.768;2023-04-10T04:41:01;101706.28;;;7.04;70.06
4972;BME280;2501;51.214;6.768;2023-04-10T04:43:29;101707.72;;;6.96;69.90
4972;BME280;2501;51.214;6.768;2023-04-10T04:45:58;101705.38;;;7.04;69.61
4972;BME280;2501;51.214;6.768;2023-04-10T04:48:29;101708.81;;;7.03;69.62
4972;BME280;2501;51.214;6.768;2023-04-10T04:50:57;101709.78;;;7.05;69.37
4972;BME280;2501;51.214;6.768;2023-04-10T04:53:26;101711.44;;;7.03;69.34
4972;BME280;2501;51.214;6.768;2023-04-10T04:55:54;101711.44;;;7.03;69.55
4972;BME280;2501;51.214;6.768;2023-04-10T04:58:23;101711.50;;;7.04;69.52
4972;BME280;2501;51.214;6.768;2023-04-10T05:00:51;101712.38;;;7.05;69.24
4972;BME280;2501;51.214;6.768;2023-04-10T05:03:20;101709.66;;;7.02;69.48
4972;BME280;2501;51.214;6.768;2023-04-10T05:05:51;101711.50;;;7.04;69.55
4972;BME280;2501;51.214;6.768;2023-04-10T05:08:19;101715.88;;;7.05;69.88
4972;BME280;2501;51.214;6.768;2023-04-10T05:10:48;101708.94;;;7.06;69.91
4972;BME280;2501;51.214;6.768;2023-04-10T05:13:17;101701.88;;;7.03;70.14
4972;BME280;2501;51.214;6.768;2023-04-10T05:15:45;101707.16;;;7.05;70.64
4972;BME280;2501;51.214;6.768;2023-04-10T05:18:14;101712.38;;;7.05;70.91
4972;BME280;2501;51.214;6.768;2023-04-10T05:20:45;101704.66;;;7.08;71.01
4972;BME280;2501;51.214;6.768;2023-04-10T05:23:17;101708.88;;;7.04;71.11
4972;BME280;2501;51.214;6.768;2023-04-10T05:25:45;101702.06;;;7.08;71.12
4972;BME280;2501;51.214;6.768;2023-04-10T05:28:13;101716.19;;;7.14;70.95
4972;BME280;2501;51.214;6.768;2023-04-10T05:30:42;101715.34;;;7.15;70.60
4972;BME280;2501;51.214;6.768;2023-04-10T05:33:10;101722.22;;;7.13;70.53
4972;BME280;2501;51.214;6.768;2023-04-10T05:35:39;101717.91;;;7.14;70.66
4972;BME280;2501;51.214;6.768;2023-04-10T05:38:08;101716.22;;;7.16;70.22
4972;BME280;2501;51.214;6.768;2023-04-10T05:40:39;101715.34;;;7.15;70.33
4972;BME280;2501;51.214;6.768;2023-04-10T05:43:08;101714.69;;;7.21;70.46
4972;BME280;2501;51.214;6.768;2023-04-10T05:45:36;101714.78;;;7.24;70.19
4972;BME280;2501;51.214;6.768;2023-04-10T05:48:05;101708.75;;;7.25;69.97
4972;BME280;2501;51.214;6.768;2023-04-10T05:50:34;101710.66;;;7.30;69.94
4972;BME280;2501;51.214;6.768;2023-04-10T05:53:02;101710.00;;;7.36;69.77
4972;BME280;2501;51.214;6.768;2023-04-10T05:55:30;101705.72;;;7.38;69.46
4972;BME280;2501;51.214;6.768;2023-04-10T05:58:01;101706.84;;;7.46;69.43
4972;BME280;2501;51.214;6.768;2023-04-10T06:00:30;101713.31;;;7.57;69.27
4972;BME280;2501;51.214;6.768;2023-04-10T06:02:58;101695.94;;;7.58;68.71
4972;BME280;2501;51.214;6.768;2023-04-10T06:05:27;101701.44;;;7.67;68.49
4972;BME280;2501;51.214;6.768;2023-04-10T06:07:55;101701.72;;;7.75;67.95
4972;BME280;2501;51.214;6.768;2023-04-10T06:10:24;101688.81;;;7.81;67.79
4972;BME280;2501;51.214;6.768;2023-04-10T06:12:55;101688.16;;;7.86;67.80
4972;BME280;2501;51.214;6.768;2023-04-10T06:15:26;101678.91;;;7.96;67.06
4972;BME280;2501;51.214;6.768;2023-04-10T06:17:55;101683.50;;;8.04;66.75
4972;BME280;2501;51.214;6.768;2023-04-10T06:20:24;101688.94;;;8.11;66.59
4972;BME280;2501;51.214;6.768;2023-04-10T06:22:52;101681.31;;;8.18;65.98
4972;BME280;2501;51.214;6.768;2023-04-10T06:25:21;101679.91;;;8.29;65.32
4972;BME280;2501;51.214;6.768;2023-04-10T06:27:49;101685.53;;;8.42;64.88
4972;BME280;2501;51.214;6.768;2023-04-10T06:30:18;101684.94;;;8.52;64.41
4972;BME280;2501;51.214;6.768;2023-04-10T06:32:49;101680.88;;;8.61;64.05
4972;BME280;2501;51.214;6.768;2023-04-10T06:35:17;101691.06;;;8.82;63.14
4972;BME280;2501;51.214;6.768;2023-04-10T06:37:46;101679.72;;;8.82;62.78
4972;BME280;2501;51.214;6.768;2023-04-10T06:40:14;101686.16;;;8.94;62.61
4972;BME280;2501;51.214;6.768;2023-04-10T06:42:43;101673.38;;;9.05;61.81
4972;BME280;2501;51.214;6.768;2023-04-10T06:45:11;101671.97;;;9.18;61.34
4972;BME280;2501;51.214;6.768;2023-04-10T06:47:40;101674.78;;;9.25;60.58
4972;BME280;2501;51.214;6.768;2023-04-10T06:50:11;101677.66;;;9.36;60.46
4972;BME280;2501;51.214;6.768;2023-04-10T06:52:39;101672.66;;;9.45;59.87
4972;BME280;2501;51.214;6.768;2023-04-10T06:55:08;101676.13;;;9.44;59.51
4972;BME280;2501;51.214;6.768;2023-04-10T06:57:37;101676.34;;;9.52;59.02
4972;BME280;2501;51.214;6.768;2023-04-10T07:00:07;101660.88;;;9.62;58.79
4972;BME280;2501;51.214;6.768;2023-04-10T07:02:36;101658.41;;;9.70;58.46
4972;BME280;2501;51.214;6.768;2023-04-10T07:05:05;101660.53;;;9.85;58.29
4972;BME280;2501;51.214;6.768;2023-04-10T07:07:36;101662.47;;;9.93;57.63
4972;BME280;2501;51.214;6.768;2023-04-10T07:10:06;101658.97;;;9.93;57.31
4972;BME280;2501;51.214;6.768;2023-04-10T07:12:34;101653.94;;;10.02;56.69
4972;BME280;2501;51.214;6.768;2023-04-10T07:15:03;101658.81;;;10.24;56.68
4972;BME280;2501;51.214;6.768;2023-04-10T07:17:32;101650.91;;;10.21;56.21
4972;BME280;2501;51.214;6.768;2023-04-10T07:20:01;101651.88;;;10.26;55.78
4972;BME280;2501;51.214;6.768;2023-04-10T07:22:29;101645.38;;;10.10;56.06
4972;BME280;2501;51.214;6.768;2023-04-10T07:25:00;101641.44;;;10.28;55.76
4972;BME280;2501;51.214;6.768;2023-04-10T07:27:29;101643.97;;;10.25;55.75
4972;BME280;2501;51.214;6.768;2023-04-10T07:29:57;101636.34;;;10.35;55.63
4972;BME280;2501;51.214;6.768;2023-04-10T07:32:26;101641.41;;;10.26;55.89
4972;BME280;2501;51.214;6.768;2023-04-10T07:34:54;101641.69;;;10.38;55.69
4972;BME280;2501;51.214;6.768;2023-04-10T07:37:23;101636.53;;;10.44;55.38
4972;BME280;2501;51.214;6.768;2023-04-10T07:39:51;101631.44;;;10.51;55.29
4972;BME280;2501;51.214;6.768;2023-04-10T07:42:22;101625.94;;;10.38;55.15
4972;BME280;2501;51.214;6.768;2023-04-10T07:44:51;101628.69;;;10.46;54.84
4972;BME280;2501;51.214;6.768;2023-04-10T07:47:19;101612.25;;;10.53;54.72
4972;BME280;2501;51.214;6.768;2023-04-10T07:49:48;101617.63;;;10.61;54.19
4972;BME280;2501;51.214;6.768;2023-04-10T07:52:16;101614.16;;;10.62;53.96
4972;BME280;2501;51.214;6.768;2023-04-10T07:54:45;101611.78;;;10.75;53.57
4972;BME280;2501;51.214;6.768;2023-04-10T07:57:13;101600.66;;;10.87;53.32
4972;BME280;2501;51.214;6.768;2023-04-10T07:59:44;101600.88;;;11.01;52.84
4972;BME280;2501;51.214;6.768;2023-04-10T08:02:13;101600.84;;;10.99;52.80
4972;BME280;2501;51.214;6.768;2023-04-10T08:04:41;101589.59;;;11.05;52.59
4972;BME280;2501;51.214;6.768;2023-04-10T08:07:10;101587.94;;;11.11;52.39
4972;BME280;2501;51.214;6.768;2023-04-10T08:09:38;101590.78;;;11.24;52.04
4972;BME280;2501;51.214;6.768;2023-04-10T08:12:06;101589.03;;;11.24;51.63
4972;BME280;2501;51.214;6.768;2023-04-10T08:14:35;101586.63;;;11.38;51.72
4972;BME280;2501;51.214;6.768;2023-04-10T08:17:06;101583.78;;;11.26;51.66
4972;BME280;2501;51.214;6.768;2023-04-10T08:19:39;101576.44;;;11.58;51.34
4972;BME280;2501;51.214;6.768;2023-04-10T08:22:07;101566.22;;;11.76;50.76
4972;BME280;2501;51.214;6.768;2023-04-10T08:24:36;101563.94;;;12.03;49.96
4972;BME280;2501;51.214;6.768;2023-04-10T08:27:04;101565.53;;;11.89;50.08
4972;BME280;2501;51.214;6.768;2023-04-10T08:29:33;101558.56;;;11.93;49.97
4972;BME280;2501;51.214;6.768;2023-04-10T08:32:01;101558.66;;;12.00;49.53
4972;BME280;2501;51.214;6.768;2023-04-10T08:34:32;101561.19;;;11.93;49.86
4972;BME280;2501;51.214;6.768;2023-04-10T08:37:04;101547.41;;;12.10;49.46
4972;BME280;2501;51.214;6.768;2023-04-10T08:39:34;101539.56;;;12.16;48.95
4972;BME280;2501;51.214;6.768;2023-04-10T08:42:04;101537.72;;;12.08;49.05
4972;BME280;2501;51.214;6.768;2023-04-10T08:44:33;101531.75;;;12.21;48.88
4972;BME280;2501;51.214;6.768;2023-04-10T08:47:02;101526.47;;;12.19;48.75
4972;BME280;2501;51.214;6.768;2023-04-10T08:49:39;101518.56;;;12.19;48.85
4972;BME280;2501;51.214;6.768;2023-04-10T08:52:13;101513.41;;;12.30;48.44
4972;BME280;2501;51.214;6.768;2023-04-10T08:54:45;101509.25;;;12.50;48.27
4972;BME280;2501;51.214;6.768;2023-04-10T08:57:15;101517.03;;;12.38;48.33
4972;BME280;2501;51.214;6.768;2023-04-10T08:59:45;101508.06;;;12.21;48.40
4972;BME280;2501;51.214;6.768;2023-04-10T09:02:14;101508.06;;;12.19;48.35
4972;BME280;2501;51.214;6.768;2023-04-10T09:04:47;101507.44;;;12.43;47.89
4972;BME280;2501;51.214;6.768;2023-04-10T09:07:17;101499.66;;;12.55;47.38
4972;BME280;2501;51.214;6.768;2023-04-10T09:09:45;101503.41;;;12.82;46.95
4972;BME280;2501;51.214;6.768;2023-04-10T09:12:15;101499.13;;;12.95;46.65
4972;BME280;2501;51.214;6.768;2023-04-10T09:14:43;101503.66;;;13.11;45.93
4972;BME280;2501;51.214;6.768;2023-04-10T09:17:16;101496.72;;;13.20;45.88
4972;BME280;2501;51.214;6.768;2023-04-10T09:19:48;101508.16;;;13.24;45.43
4972;BME280;2501;51.214;6.768;2023-04-10T09:22:17;101505.69;;;13.48;44.64
4972;BME280;2501;51.214;6.768;2023-04-10T09:24:46;101498.66;;;13.52;44.40
4972;BME280;2501;51.214;6.768;2023-04-10T09:27:28;101504.03;;;13.63;44.21
4972;BME280;2501;51.214;6.768;2023-04-10T09:30:00;101510.28;;;13.87;43.81
4972;BME280;2501;51.214;6.768;2023-04-10T09:32:37;101505.81;;;13.71;44.06
4972;BME280;2501;51.214;6.768;2023-04-10T09:35:10;101508.53;;;13.83;43.49
4972;BME280;2501;51.214;6.768;2023-04-10T09:37:40;101507.59;;;13.77;43.16
4972;BME280;2501;51.214;6.768;2023-04-10T09:40:19;101497.03;;;13.75;43.30
4972;BME280;2501;51.214;6.768;2023-04-10T09:42:49;101486.63;;;14.09;43.16
4972;BME280;2501;51.214;6.768;2023-04-10T09:45:17;101484.91;;;14.15;43.18
4972;BME280;2501;51.214;6.768;2023-04-10T09:48:02;101467.38;;;14.37;42.79
4972;BME280;2501;51.214;6.768;2023-04-10T09:50:37;101475.22;;;14.11;42.48
4972;BME280;2501;51.214;6.768;2023-04-10T09:53:07;101485.78;;;14.13;42.86
4972;BME280;2501;51.214;6.768;2023-04-10T09:55:35;101479.63;;;14.20;42.55
4972;BME280;2501;51.214;6.768;2023-04-10T09:58:05;101462.91;;;14.21;42.28
4972;BME280;2501;51.214;6.768;2023-04-10T10:00:37;101454.22;;;14.52;41.67
4972;BME280;2501;51.214;6.768;2023-04-10T10:03:08;101445.41;;;14.82;41.29
4972;BME280;2501;51.214;6.768;2023-04-10T10:05:41;101445.38;;;14.35;41.68
4972;BME280;2501;51.214;6.768;2023-04-10T10:08:11;101440.13;;;14.55;41.37
4972;BME280;2501;51.214;6.768;2023-04-10T10:10:44;101448.03;;;14.56;41.28
4972;BME280;2501;51.214;6.768;2023-04-10T10:13:15;101428.66;;;14.94;40.59
4972;BME280;2501;51.214;6.768;2023-04-10T10:15:52;101435.69;;;15.10;40.12
4972;BME280;2501;51.214;6.768;2023-04-10T10:18:29;101424.25;;;15.17;39.20
4972;BME280;2501;51.214;6.768;2023-04-10T10:21:03;101425.13;;;15.13;39.70
4972;BME280;2501;51.214;6.768;2023-04-10T10:23:32;101424.25;;;15.07;39.68
4972;BME280;2501;51.214;6.768;2023-04-10T10:26:04;101417.09;;;15.56;38.76
4972;BME280;2501;51.214;6.768;2023-04-10T10:28:34;101402.22;;;15.12;39.08
4972;BME280;2501;51.214;6.768;2023-04-10T10:31:04;101401.34;;;15.21;39.05
4972;BME280;2501;51.214;6.768;2023-04-10T10:33:34;101396.81;;;15.50;38.67
4972;BME280;2501;51.214;6.768;2023-04-10T10:36:07;101383.63;;;15.58;38.02
4972;BME280;2501;51.214;6.768;2023-04-10T10:38:40;101367.88;;;15.17;38.57
4972;BME280;2501;51.214;6.768;2023-04-10T10:41:15;101368.78;;;15.05;39.26
4972;BME280;2501;51.214;6.768;2023-04-10T10:43:51;101358.22;;;14.94;39.44
4972;BME280;2501;51.214;6.768;2023-04-10T10:46:33;101354.59;;;15.30;39.09
4972;BME280;2501;51.214;6.768;2023-04-10T10:49:02;101345.72;;;15.44;38.69
4972;BME280;2501;51.214;6.768;2023-04-10T10:51:45;101340.56;;;15.13;38.86
4972;BME280;2501;51.214;6.768;2023-04-10T10:54:27;101340.38;;;15.62;38.44
4972;BME280;2501;51.214;6.768;2023-04-10T10:56:56;101334.19;;;15.68;38.06
4972;BME280;2501;51.214;6.768;2023-04-10T10:59:55;101334.25;;;15.52;38.69
4972;BME280;2501;51.214;6.768;2023-04-10T11:02:23;101314.13;;;15.21;39.00
4972;BME280;2501;51.214;6.768;2023-04-10T11:04:52;101315.69;;;15.63;38.31
4972;BME280;2501;51.214;6.768;2023-04-10T11:13:28;101301.47;;;15.82;37.98
4972;BME280;2501;51.214;6.768;2023-04-10T11:15:59;101297.16;;;15.72;37.98
4972;BME280;2501;51.214;6.768;2023-04-10T11:21:27;101290.09;;;15.73;38.39
4972;BME280;2501;51.214;6.768;2023-04-10T11:24:05;101291.75;;;15.86;38.29
4972;BME280;2501;51.214;6.768;2023-04-10T11:26:37;101281.25;;;15.75;38.27
4972;BME280;2501;51.214;6.768;2023-04-10T11:29:32;101278.44;;;15.96;37.85
4972;BME280;2501;51.214;6.768;2023-04-10T11:32:03;101272.38;;;15.81;38.06
4972;BME280;2501;51.214;6.768;2023-04-10T11:34:31;101271.34;;;16.01;38.13
4972;BME280;2501;51.214;6.768;2023-04-10T11:37:01;101269.63;;;15.96;38.44
4972;BME280;2501;51.214;6.768;2023-04-10T11:39:34;101266.03;;;16.08;38.04
4972;BME280;2501;51.214;6.768;2023-04-10T11:42:02;101256.50;;;15.84;38.24
4972;BME280;2501;51.214;6.768;2023-04-10T11:44:33;101255.56;;;15.92;38.41
4972;BME280;2501;51.214;6.768;2023-04-10T11:47:03;101243.44;;;15.61;38.76
4972;BME280;2501;51.214;6.768;2023-04-10T11:49:33;101253.94;;;15.73;38.65
4972;BME280;2501;51.214;6.768;2023-04-10T11:52:01;101244.38;;;15.48;39.17
4972;BME280;2501;51.214;6.768;2023-04-10T11:54:30;101242.50;;;15.73;38.80
4972;BME280;2501;51.214;6.768;2023-04-10T11:57:02;101246.81;;;15.84;38.83
4972;BME280;2501;51.214;6.768;2023-04-10T11:59:32;101243.31;;;15.79;38.98
4972;BME280;2501;51.214;6.768;2023-04-10T12:02:05;101240.72;;;15.72;38.65
4972;BME280;2501;51.214;6.768;2023-04-10T12:04:35;101228.91;;;16.11;38.34
4972;BME280;2501;51.214;6.768;2023-04-10T12:07:04;101222.97;;;15.90;38.56
4972;BME280;2501;51.214;6.768;2023-04-10T12:09:33;101228.38;;;15.74;38.28
4972;BME280;2501;51.214;6.768;2023-04-10T12:12:05;101222.13;;;15.84;38.31
4972;BME280;2501;51.214;6.768;2023-04-10T12:14:35;101209.78;;;15.84;38.69
4972;BME280;2501;51.214;6.768;2023-04-10T12:17:05;101213.28;;;15.86;38.37
4972;BME280;2501;51.214;6.768;2023-04-10T12:19:34;101210.53;;;15.98;38.62
4972;BME280;2501;51.214;6.768;2023-04-10T12:22:02;101211.44;;;15.94;38.46
4972;BME280;2501;51.214;6.768;2023-04-10T12:24:42;101196.50;;;15.90;38.52
4972;BME280;2501;51.214;6.768;2023-04-10T12:27:20;101196.41;;;15.98;38.31
4972;BME280;2501;51.214;6.768;2023-04-10T12:29:51;101193.88;;;15.86;38.64
4972;BME280;2501;51.214;6.768;2023-04-10T12:32:20;101191.78;;;16.21;38.46
4972;BME280;2501;51.214;6.768;2023-04-10T12:34:49;101186.47;;;16.26;38.44
4972;BME280;2501;51.214;6.768;2023-04-10T12:37:18;101170.22;;;16.56;37.81
4972;BME280;2501;51.214;6.768;2023-04-10T12:39:47;101166.59;;;16.65;37.17
4972;BME280;2501;51.214;6.768;2023-04-10T12:42:20;101164.81;;;16.65;37.33
4972;BME280;2501;51.214;6.768;2023-04-10T12:44:49;101156.13;;;16.53;37.14
4972;BME280;2501;51.214;6.768;2023-04-10T12:47:18;101161.28;;;16.68;37.23
4972;BME280;2501;51.214;6.768;2023-04-10T12:50:06;101148.34;;;17.10;36.75
4972;BME280;2501;51.214;6.768;2023-04-10T12:52:37;101144.97;;;16.98;36.69
4972;BME280;2501;51.214;6.768;2023-04-10T12:55:10;101141.44;;;16.98;36.56
4972;BME280;2501;51.214;6.768;2023-04-10T12:57:42;101136.06;;;17.04;36.64
4972;BME280;2501;51.214;6.768;2023-04-10T13:00:13;101131.72;;;17.54;35.80
4972;BME280;2501;51.214;6.768;2023-04-10T13:02:42;101129.59;;;17.22;35.96
4972;BME280;2501;51.214;6.768;2023-04-10T13:05:11;101120.13;;;17.05;36.44
4972;BME280;2501;51.214;6.768;2023-04-10T13:07:40;101119.63;;;17.37;35.81
4972;BME280;2501;51.214;6.768;2023-04-10T13:10:09;101107.31;;;16.77;36.72
4972;BME280;2501;51.214;6.768;2023-04-10T13:12:37;101122.13;;;16.91;36.95
4972;BME280;2501;51.214;6.768;2023-04-10T13:15:09;101118.38;;;17.04;37.17
4972;BME280;2501;51.214;6.768;2023-04-10T13:17:37;101112.97;;;17.12;36.47
4972;BME280;2501;51.214;6.768;2023-04-10T13:20:08;101115.50;;;17.18;36.28
4972;BME280;2501;51.214;6.768;2023-04-10T13:22:37;101104.78;;;17.27;36.35
4972;BME280;2501;51.214;6.768;2023-04-10T13:25:07;101104.94;;;17.15;36.03
4972;BME280;2501;51.214;6.768;2023-04-10T13:27:35;101081.06;;;17.18;34.90
4972;BME280;2501;51.214;6.768;2023-04-10T13:30:05;101079.53;;;17.02;34.27
4972;BME280;2501;51.214;6.768;2023-04-10T13:32:36;101075.94;;;17.08;34.37
4972;BME280;2501;51.214;6.768;2023-04-10T13:35:05;101073.22;;;17.12;34.65
4972;BME280;2501;51.214;6.768;2023-04-10T13:37:33;101059.88;;;17.17;33.89
4972;BME280;2501;51.214;6.768;2023-04-10T13:40:02;101051.91;;;17.17;34.04
4972;BME280;2501;51.214;6.768;2023-04-10T13:42:31;101048.03;;;17.37;33.86
4972;BME280;2501;51.214;6.768;2023-04-10T13:45:00;101035.72;;;17.33;33.71